Terminal Aerodrome Forecast
Issued by NWS

Home | Current Version | Previous Version | Text Only | Print | Product List | Glossary On
Versions: 1 2 3 4 5 6 7 8 9 10 11 12 13 14 15 16 17 18 19 20 21 22 23 24 25 26 27 28 29
000
FTUS41 KBUF 272321
TAFIAG
TAF
KIAG 272321Z 2800/2824 06007KT P6SM SCT100 BKN250
     FM280200 09006KT P6SM BKN140
     FM280500 16006KT P6SM VCTS BKN060CB
     FM280800 21008KT P6SM VCTS BKN060CB
     FM281200 22009KT P6SM BKN130
     FM281700 24012G18KT P6SM VCSH BKN060
     FM282000 24013G19KT P6SM VCSH BKN045=

USA.gov is the U.S. government's official web portal to all federal, state and local government web resources and services.